createdAt,value
2018-07-30T00:00:09.094Z,96850.03
2018-07-30T00:02:45.128Z,96849.38
2018-07-30T00:05:14.325Z,96846.88
2018-07-30T00:07:43.516Z,96846.55
2018-07-30T00:10:12.684Z,96838.78
2018-07-30T00:12:42.243Z,96843.97
2018-07-30T00:15:11.922Z,96852.25
2018-07-30T00:17:41.087Z,96850.52
2018-07-30T00:20:10.587Z,96847.49
2018-07-30T00:22:39.758Z,96848.43
2018-07-30T00:25:09.822Z,96847.31
2018-07-30T00:27:39.211Z,96853.92
2018-07-30T00:30:08.864Z,96854.47
2018-07-30T00:32:38.184Z,96853.53
2018-07-30T00:35:07.570Z,96851.73
2018-07-30T00:37:36.749Z,96848.52
2018-07-30T00:40:06.175Z,96852.45
2018-07-30T00:42:35.366Z,96856.97
2018-07-30T00:45:04.680Z,96863.55
2018-07-30T00:47:33.851Z,96862.47
2018-07-30T00:50:03.412Z,96864.27
2018-07-30T00:52:33.020Z,96865.88
2018-07-30T00:55:02.213Z,96869.55
2018-07-30T00:57:31.630Z,96869.19
2018-07-30T01:00:00.808Z,96866.98
2018-07-30T01:02:30.101Z,96867.06
2018-07-30T01:04:59.274Z,96877.08
2018-07-30T01:07:29.216Z,96870.86
2018-07-30T01:09:58.656Z,96870.77
2018-07-30T01:12:28.261Z,96875.19
2018-07-30T01:14:57.403Z,96877.63
2018-07-30T01:17:26.736Z,96878.47
2018-07-30T01:19:56.116Z,96875.83
2018-07-30T01:22:25.799Z,96874.81
2018-07-30T01:24:55.311Z,96875.17
2018-07-30T01:27:24.758Z,96876.05
2018-07-30T01:29:53.906Z,96873.22
2018-07-30T01:32:23.094Z,96876.02
2018-07-30T01:34:52.654Z,96875.92
2018-07-30T01:37:22.139Z,96878.02
2018-07-30T01:39:51.300Z,96878.55
2018-07-30T01:42:20.455Z,96878.09
2018-07-30T01:44:50.063Z,96879.38
2018-07-30T01:47:19.238Z,96881.64
2018-07-30T01:49:48.791Z,96882.19
2018-07-30T01:52:18.015Z,96881.28
2018-07-30T01:54:47.225Z,96889.51
2018-07-30T01:57:16.376Z,96884.06
2018-07-30T01:59:46.227Z,96875.13
2018-07-30T02:02:15.787Z,96881.06
2018-07-30T02:04:44.959Z,96873.70
2018-07-30T02:07:14.411Z,96875.73
2018-07-30T02:09:43.655Z,96876.18
2018-07-30T02:12:12.834Z,96879.77
2018-07-30T02:14:42.033Z,96877.41
2018-07-30T02:17:11.174Z,96870.45
2018-07-30T02:19:40.338Z,96867.84
2018-07-30T02:22:09.511Z,96868.91
2018-07-30T02:24:38.683Z,96870.23
2018-07-30T02:27:08.848Z,96875.78
2018-07-30T02:29:38.890Z,96877.53
2018-07-30T02:32:08.895Z,96883.73
2018-07-30T02:34:38.383Z,96879.42
2018-07-30T02:37:07.848Z,96884.77
2018-07-30T02:39:37.248Z,96882.97
2018-07-30T02:42:06.420Z,96886.23
2018-07-30T02:44:35.859Z,96886.63
2018-07-30T02:47:05.059Z,96888.80
2018-07-30T02:49:34.222Z,96894.61
2018-07-30T02:52:03.399Z,96888.22
2018-07-30T02:54:33.399Z,96884.23
2018-07-30T02:57:02.642Z,96878.56
2018-07-30T02:59:31.851Z,96880.12
2018-07-30T03:02:01.015Z,96880.17
2018-07-30T03:04:30.470Z,96879.66
2018-07-30T03:07:00.306Z,96877.06
2018-07-30T03:09:29.585Z,96884.06
2018-07-30T03:11:58.650Z,96876.60
2018-07-30T03:14:27.825Z,96884.23
2018-07-30T03:16:56.986Z,96888.59
2018-07-30T03:19:26.158Z,96887.09
2018-07-30T03:21:56.138Z,96888.55
2018-07-30T03:24:26.135Z,96894.41
2018-07-30T03:26:55.794Z,96891.16
2018-07-30T03:29:24.954Z,96891.54
2018-07-30T03:31:54.395Z,96889.64
2018-07-30T03:34:23.903Z,96890.48
2018-07-30T03:36:53.074Z,96891.18
2018-07-30T03:39:22.444Z,96891.18
2018-07-30T03:41:52.023Z,96894.17
2018-07-30T03:44:21.528Z,96902.22
2018-07-30T03:46:50.719Z,96897.18
2018-07-30T03:49:19.895Z,96902.69
2018-07-30T03:51:49.062Z,96899.14
2018-07-30T03:54:18.355Z,96896.52
2018-07-30T03:56:47.540Z,96899.63
2018-07-30T03:59:16.710Z,96900.22
2018-07-30T04:01:46.567Z,96899.13
2018-07-30T04:04:15.726Z,96900.73
2018-07-30T04:06:45.282Z,96903.79
2018-07-30T04:09:14.463Z,96902.03
2018-07-30T04:11:44.058Z,96901.42
2018-07-30T04:14:13.338Z,96899.55
2018-07-30T04:16:50.212Z,96898.84
2018-07-30T04:19:20.440Z,96895.05
2018-07-30T04:21:49.939Z,96900.09
2018-07-30T04:24:19.119Z,96895.33
2018-07-30T04:26:48.610Z,96896.30
2018-07-30T04:29:17.783Z,96898.59
2018-07-30T04:31:46.951Z,96901.14
2018-07-30T04:34:17.104Z,96903.45
2018-07-30T04:36:46.287Z,96907.60
2018-07-30T04:39:16.919Z,96900.34
2018-07-30T04:41:46.547Z,96914.57
2018-07-30T04:44:15.728Z,96911.38
2018-07-30T04:46:45.000Z,96909.25
2018-07-30T04:49:14.225Z,96906.81
2018-07-30T04:51:43.331Z,96910.50
2018-07-30T04:54:12.522Z,96912.08
2018-07-30T04:56:41.668Z,96910.31
2018-07-30T04:59:10.847Z,96909.95
2018-07-30T05:01:40.638Z,96903.81
2018-07-30T05:04:09.825Z,96901.47
2018-07-30T05:06:38.996Z,96898.12
2018-07-30T05:09:08.935Z,96900.83
2018-07-30T05:11:38.093Z,96898.97
2018-07-30T05:14:07.307Z,96906.27
2018-07-30T05:16:36.712Z,96906.99
2018-07-30T05:19:05.923Z,96907.42
2018-07-30T05:21:35.115Z,96902.28
2018-07-30T05:24:04.302Z,96907.22
2018-07-30T05:26:34.094Z,96901.45
2018-07-30T05:29:03.310Z,96902.25
2018-07-30T05:31:32.818Z,96910.85
2018-07-30T05:34:02.265Z,96908.92
2018-07-30T05:36:31.675Z,96908.23
2018-07-30T05:39:00.859Z,96914.75
2018-07-30T05:41:30.040Z,96912.91
2018-07-30T05:43:59.274Z,96910.80
2018-07-30T05:46:28.670Z,96904.61
2018-07-30T05:48:57.907Z,96908.01
2018-07-30T05:51:27.106Z,96913.05
2018-07-30T05:53:56.254Z,96911.00
2018-07-30T05:56:25.443Z,96915.82
2018-07-30T05:58:54.598Z,96896.75
2018-07-30T06:01:24.203Z,96906.94
2018-07-30T06:03:53.362Z,96903.49
2018-07-30T06:06:22.553Z,96910.39
2018-07-30T06:08:51.731Z,96908.09
2018-07-30T06:11:20.898Z,96905.19
2018-07-30T06:13:50.072Z,96902.53
2018-07-30T06:16:19.326Z,96907.20
2018-07-30T06:18:48.776Z,96904.17
2018-07-30T06:21:17.971Z,96905.38
2018-07-30T06:23:47.224Z,96906.37
2018-07-30T06:26:16.489Z,96908.01
2018-07-30T06:28:45.948Z,96910.00
2018-07-30T06:31:15.283Z,96909.56
2018-07-30T06:33:44.761Z,96912.78
2018-07-30T06:36:14.359Z,96911.72
2018-07-30T06:38:43.566Z,96919.55
2018-07-30T06:41:13.063Z,96921.83
2018-07-30T06:43:42.238Z,96920.98
2018-07-30T06:46:11.455Z,96916.51
2018-07-30T06:48:40.793Z,96924.78
2018-07-30T06:51:09.983Z,96922.85
2018-07-30T06:53:39.174Z,96923.31
2018-07-30T06:56:08.367Z,96923.17
2018-07-30T06:58:37.827Z,96921.61
2018-07-30T07:01:07.247Z,96926.05
2018-07-30T07:03:36.424Z,96921.52
2018-07-30T07:06:05.628Z,96927.84
2018-07-30T07:08:34.787Z,96925.58
2018-07-30T07:11:04.620Z,96944.86
2018-07-30T07:13:33.807Z,96946.27
2018-07-30T07:16:03.014Z,96946.84
2018-07-30T07:18:32.218Z,96952.53
2018-07-30T07:21:01.447Z,96946.50
2018-07-30T07:23:30.839Z,96951.87
2018-07-30T07:26:00.252Z,96953.03
2018-07-30T07:28:29.796Z,96959.25
2018-07-30T07:30:59.315Z,96953.02
2018-07-30T07:33:28.527Z,96958.20
2018-07-30T07:35:57.715Z,96956.80
2018-07-30T07:38:27.194Z,96957.66
2018-07-30T07:40:56.404Z,96957.64
2018-07-30T07:43:25.863Z,96961.23
2018-07-30T07:45:55.163Z,96955.99
2018-07-30T07:48:24.359Z,96966.87
2018-07-30T07:50:53.749Z,96959.58
2018-07-30T07:53:22.963Z,96959.41
2018-07-30T07:55:52.162Z,96969.59
2018-07-30T07:58:21.454Z,96964.30
2018-07-30T08:00:50.859Z,96960.13
2018-07-30T08:03:20.151Z,96963.62
2018-07-30T08:05:49.342Z,96955.51
2018-07-30T08:08:18.508Z,96953.63
2018-07-30T08:10:48.063Z,96962.17
2018-07-30T08:13:17.219Z,96957.75
2018-07-30T08:15:46.487Z,96961.28
2018-07-30T08:18:15.684Z,96961.75
2018-07-30T08:20:45.017Z,96955.82
2018-07-30T08:23:14.555Z,96954.91
2018-07-30T08:25:43.768Z,96951.67
2018-07-30T08:28:12.935Z,96951.37
2018-07-30T08:30:42.183Z,96948.20
2018-07-30T08:33:11.422Z,96946.81
2018-07-30T08:35:40.603Z,96948.44
2018-07-30T08:38:09.791Z,96948.14
2018-07-30T08:40:39.001Z,96946.58
2018-07-30T08:43:08.191Z,96957.55
2018-07-30T08:45:37.378Z,96950.64
2018-07-30T08:48:06.563Z,96952.23
2018-07-30T08:50:36.542Z,96949.34
2018-07-30T08:53:05.910Z,96949.98
2018-07-30T08:55:35.159Z,96948.67
2018-07-30T08:58:04.411Z,96952.61
2018-07-30T09:00:33.647Z,96954.50
2018-07-30T09:03:02.851Z,96961.27
2018-07-30T09:05:32.071Z,96963.00
2018-07-30T09:08:01.267Z,96959.35
2018-07-30T09:10:30.470Z,96962.84
2018-07-30T09:12:59.643Z,96961.98
2018-07-30T09:15:28.831Z,96963.05
2018-07-30T09:17:58.027Z,96960.17
2018-07-30T09:20:27.266Z,96953.77
2018-07-30T09:22:56.430Z,96960.41
2018-07-30T09:25:25.631Z,96941.11
2018-07-30T09:27:54.874Z,96946.20
2018-07-30T09:30:24.134Z,96951.80
2018-07-30T09:32:53.370Z,96947.61
2018-07-30T09:35:22.539Z,96959.31
2018-07-30T09:37:51.804Z,96948.33
2018-07-30T09:40:21.363Z,96950.02
2018-07-30T09:42:50.555Z,96949.94
2018-07-30T09:45:19.747Z,96948.47
2018-07-30T09:47:48.922Z,96957.50
2018-07-30T09:50:18.174Z,96950.20
2018-07-30T09:52:48.163Z,96953.48
2018-07-30T09:55:17.355Z,96947.45
2018-07-30T09:57:46.544Z,96951.59
2018-07-30T10:00:20.218Z,96955.70
2018-07-30T10:02:49.388Z,96954.94
2018-07-30T10:05:18.602Z,96954.37
2018-07-30T10:07:48.647Z,96959.01
2018-07-30T10:10:17.845Z,96948.77
2018-07-30T10:12:46.999Z,96941.55
2018-07-30T10:15:16.203Z,96948.62
2018-07-30T10:17:46.484Z,96946.00
2018-07-30T10:20:16.020Z,96938.56
2018-07-30T10:22:45.487Z,96942.67
2018-07-30T10:25:15.000Z,96935.41
2018-07-30T10:27:44.514Z,96935.11
2018-07-30T10:30:13.721Z,96941.50
2018-07-30T10:32:43.027Z,96936.16
2018-07-30T10:35:12.936Z,96939.35
2018-07-30T10:37:42.113Z,96931.98
2018-07-30T10:40:11.622Z,96931.11
2018-07-30T10:42:40.803Z,96929.87
2018-07-30T10:45:10.108Z,96930.43
2018-07-30T10:47:39.526Z,96927.97
2018-07-30T10:50:09.047Z,96925.64
2018-07-30T10:52:38.231Z,96920.17
2018-07-30T10:55:07.435Z,96918.66
2018-07-30T10:57:36.604Z,96923.39
2018-07-30T11:00:06.168Z,96920.03
2018-07-30T11:02:35.384Z,96917.91
2018-07-30T11:05:04.779Z,96914.50
2018-07-30T11:07:34.052Z,96913.73
2018-07-30T11:10:03.630Z,96911.53
2018-07-30T11:12:32.822Z,96910.31
2018-07-30T11:15:02.022Z,96908.08
2018-07-30T11:17:31.435Z,96909.55
2018-07-30T11:20:00.695Z,96910.04
2018-07-30T11:22:29.896Z,96900.86
2018-07-30T11:24:59.066Z,96901.36
2018-07-30T11:27:28.583Z,96896.61
2018-07-30T11:29:57.811Z,96904.38
2018-07-30T11:32:27.010Z,96901.52
2018-07-30T11:34:56.192Z,96899.80
2018-07-30T11:37:25.902Z,96906.53
2018-07-30T11:39:55.078Z,96894.60
2018-07-30T11:42:24.718Z,96896.94
2018-07-30T11:44:54.045Z,96902.25
2018-07-30T11:47:23.275Z,96898.20
2018-07-30T11:49:52.452Z,96889.64
2018-07-30T11:52:21.646Z,96885.40
2018-07-30T11:54:50.833Z,96880.70
2018-07-30T11:57:20.015Z,96884.81
2018-07-30T11:59:49.195Z,96886.41
2018-07-30T12:02:18.395Z,96879.79
2018-07-30T12:04:47.798Z,96880.53
2018-07-30T12:07:17.056Z,96882.98
2018-07-30T12:09:47.710Z,96882.83
2018-07-30T12:12:17.384Z,96881.92
2018-07-30T12:14:46.587Z,96882.02
2018-07-30T12:17:15.900Z,96890.11
2018-07-30T12:19:45.130Z,96893.16
2018-07-30T12:22:14.979Z,96884.66
2018-07-30T12:24:44.183Z,96887.20
2018-07-30T12:27:13.408Z,96879.94
2018-07-30T12:29:42.594Z,96881.27
2018-07-30T12:32:11.811Z,96876.80
2018-07-30T12:34:40.983Z,96883.87
2018-07-30T12:37:10.196Z,96878.85
2018-07-30T12:39:39.667Z,96871.03
2018-07-30T12:42:08.884Z,96884.83
2018-07-30T12:44:38.527Z,96884.72
2018-07-30T12:47:07.731Z,96872.31
2018-07-30T12:49:36.923Z,96877.54
2018-07-30T12:52:06.102Z,96870.79
2018-07-30T12:54:35.275Z,96879.74
2018-07-30T12:57:04.484Z,96868.86
2018-07-30T12:59:33.985Z,96865.78
2018-07-30T13:02:03.228Z,96857.91
2018-07-30T13:04:32.416Z,96860.33
2018-07-30T13:07:02.447Z,96865.09
2018-07-30T13:09:31.679Z,96864.41
2018-07-30T13:12:00.914Z,96878.64
2018-07-30T13:14:30.094Z,96871.73
2018-07-30T13:16:59.295Z,96862.43
2018-07-30T13:19:28.480Z,96853.34
2018-07-30T13:21:57.699Z,96860.29
2018-07-30T13:24:26.902Z,96855.41
2018-07-30T13:26:56.103Z,96853.37
2018-07-30T13:29:25.708Z,96853.49
2018-07-30T13:31:54.916Z,96843.96
2018-07-30T13:34:24.083Z,96862.64
2018-07-30T13:36:53.290Z,96856.66
2018-07-30T13:39:22.476Z,96859.45
2018-07-30T13:41:51.715Z,96855.83
2018-07-30T13:44:20.913Z,96850.00
2018-07-30T13:46:50.094Z,96846.79
2018-07-30T13:49:19.279Z,96840.78
2018-07-30T13:51:48.515Z,96845.08
2018-07-30T13:54:17.774Z,96847.47
2018-07-30T13:56:46.944Z,96843.44
2018-07-30T13:59:16.131Z,96837.05
2018-07-30T14:01:45.318Z,96840.95
2018-07-30T14:04:14.497Z,96838.50
2018-07-30T14:06:43.801Z,96838.70
2018-07-30T14:09:13.197Z,96839.39
2018-07-30T14:11:42.432Z,96836.77
2018-07-30T14:14:11.679Z,96839.36
2018-07-30T14:16:41.735Z,96836.02
2018-07-30T14:19:11.211Z,96840.52
2018-07-30T14:21:40.837Z,96836.27
2018-07-30T14:24:10.061Z,96834.66
2018-07-30T14:26:39.288Z,96842.54
2018-07-30T14:29:08.667Z,96831.73
2018-07-30T14:31:37.888Z,96839.30
2018-07-30T14:34:07.095Z,96842.72
2018-07-30T14:36:36.725Z,96846.34
2018-07-30T14:39:09.198Z,96849.48
2018-07-30T14:41:38.491Z,96836.02
2018-07-30T14:44:07.804Z,96845.80
2018-07-30T14:46:37.038Z,96853.19
2018-07-30T14:49:06.247Z,96841.14
2018-07-30T14:51:35.461Z,96835.47
2018-07-30T14:54:04.671Z,96839.75
2018-07-30T14:56:33.852Z,96835.77
2018-07-30T14:59:03.937Z,96836.09
2018-07-30T15:01:33.712Z,96829.61
2018-07-30T15:04:02.895Z,96828.86
2018-07-30T15:06:32.461Z,96824.66
2018-07-30T15:09:02.611Z,96821.55
2018-07-30T15:11:32.066Z,96821.13
2018-07-30T15:14:01.588Z,96815.39
2018-07-30T15:16:31.019Z,96821.50
2018-07-30T15:19:00.702Z,96816.27
2018-07-30T15:21:29.883Z,96817.91
2018-07-30T15:23:59.210Z,96816.38
2018-07-30T15:26:28.801Z,96816.94
2018-07-30T15:28:58.799Z,96813.37
2018-07-30T15:31:28.104Z,96814.53
2018-07-30T15:33:57.302Z,96814.86
2018-07-30T15:36:26.934Z,96812.23
2018-07-30T15:38:56.152Z,96806.94
2018-07-30T15:41:25.347Z,96803.62
2018-07-30T15:43:54.547Z,96807.58
2018-07-30T15:46:23.838Z,96803.55
2018-07-30T15:48:53.455Z,96807.33
2018-07-30T15:51:22.930Z,96810.48
2018-07-30T15:53:52.380Z,96808.28
2018-07-30T15:56:21.950Z,96807.31
2018-07-30T15:58:51.558Z,96804.91
2018-07-30T16:01:20.974Z,96802.55
2018-07-30T16:03:51.386Z,96802.08
2018-07-30T16:06:20.535Z,96800.59
2018-07-30T16:08:50.330Z,96794.41
2018-07-30T16:11:19.537Z,96802.27
2018-07-30T16:13:48.974Z,96799.55
2018-07-30T16:16:18.162Z,96793.85
2018-07-30T16:18:47.459Z,96802.36
2018-07-30T16:21:17.228Z,96800.67
2018-07-30T16:23:46.399Z,96799.74
2018-07-30T16:26:16.037Z,96802.33
2018-07-30T16:28:45.859Z,96806.84
2018-07-30T16:31:15.142Z,96799.31
2018-07-30T16:33:44.676Z,96805.67
2018-07-30T16:36:14.719Z,96802.84
2018-07-30T16:38:43.962Z,96801.19
2018-07-30T16:41:13.217Z,96800.45
2018-07-30T16:43:43.071Z,96799.72
2018-07-30T16:46:12.886Z,96804.78
2018-07-30T16:48:42.117Z,96799.08
2018-07-30T16:51:11.376Z,96808.60
2018-07-30T16:53:41.197Z,96806.48
2018-07-30T16:56:10.407Z,96807.30
2018-07-30T16:58:39.889Z,96804.70
2018-07-30T17:01:09.833Z,96809.81
2018-07-30T17:03:39.058Z,96807.67
2018-07-30T17:06:08.607Z,96805.70
2018-07-30T17:08:38.029Z,96806.10
2018-07-30T17:11:07.582Z,96812.84
2018-07-30T17:13:37.084Z,96804.05
2018-07-30T17:16:06.538Z,96816.84
2018-07-30T17:18:35.742Z,96809.00
2018-07-30T17:21:05.291Z,96810.25
2018-07-30T17:23:34.474Z,96811.95
2018-07-30T17:26:03.658Z,96812.88
2018-07-30T17:28:33.107Z,96813.59
2018-07-30T17:31:02.416Z,96814.44
2018-07-30T17:33:31.596Z,96814.52
2018-07-30T17:36:00.779Z,96819.98
2018-07-30T17:38:30.414Z,96821.98
2018-07-30T17:40:59.992Z,96825.73
2018-07-30T17:43:29.403Z,96823.55
2018-07-30T17:45:59.027Z,96835.87
2018-07-30T17:48:28.610Z,96827.47
2018-07-30T17:50:58.511Z,96827.32
2018-07-30T17:53:28.361Z,96821.97
2018-07-30T17:55:57.543Z,96821.95
2018-07-30T17:58:27.063Z,96828.28
2018-07-30T18:00:56.267Z,96828.81
2018-07-30T18:03:25.452Z,96830.77
2018-07-30T18:05:55.247Z,96827.20
2018-07-30T18:08:24.431Z,96826.96
2018-07-30T18:10:53.897Z,96827.52
2018-07-30T18:13:23.688Z,96837.28
2018-07-30T18:15:53.220Z,96832.92
2018-07-30T18:18:22.636Z,96837.08
2018-07-30T18:20:52.083Z,96831.67
2018-07-30T18:23:21.282Z,96831.67
2018-07-30T18:25:50.487Z,96833.52
2018-07-30T18:28:19.679Z,96830.55
2018-07-30T18:30:49.211Z,96824.38
2018-07-30T18:33:19.256Z,96840.08
2018-07-30T18:35:48.962Z,96834.97
2018-07-30T18:38:18.539Z,96842.61
2018-07-30T18:40:47.888Z,96841.26
2018-07-30T18:43:17.673Z,96837.70
2018-07-30T18:45:46.890Z,96842.69
2018-07-30T18:48:16.709Z,96847.04
2018-07-30T18:50:45.922Z,96845.64
2018-07-30T18:53:16.290Z,96839.95
2018-07-30T18:55:45.659Z,96839.62
2018-07-30T18:58:14.883Z,96841.39
2018-07-30T19:00:44.623Z,96845.84
2018-07-30T19:03:14.095Z,96843.19
2018-07-30T19:05:44.134Z,96853.88
2018-07-30T19:08:13.295Z,96850.63
2018-07-30T19:10:42.584Z,96854.39
2018-07-30T19:13:12.243Z,96861.94
2018-07-30T19:15:42.249Z,96852.90
2018-07-30T19:18:11.515Z,96856.83
2018-07-30T19:20:41.029Z,96863.58
2018-07-30T19:23:10.883Z,96871.27
2018-07-30T19:25:40.498Z,96871.59
2018-07-30T19:28:09.676Z,96874.06
2018-07-30T19:30:38.877Z,96881.47
2018-07-30T19:33:08.242Z,96887.34
2018-07-30T19:35:37.584Z,96891.84
2018-07-30T19:38:06.771Z,96897.03
2018-07-30T19:40:35.990Z,96900.74
2018-07-30T19:43:05.286Z,96900.91
2018-07-30T19:45:34.403Z,96906.19
2018-07-30T19:48:03.784Z,96901.97
2018-07-30T19:50:32.994Z,96907.82
2018-07-30T19:53:02.576Z,96904.75
2018-07-30T19:55:31.910Z,96913.66
2018-07-30T19:58:01.569Z,96913.53
2018-07-30T20:00:30.871Z,96919.58
2018-07-30T20:03:00.384Z,96915.69
2018-07-30T20:05:30.186Z,96919.69
2018-07-30T20:07:59.799Z,96922.60
2018-07-30T20:10:28.991Z,96925.81
2018-07-30T20:12:58.170Z,96925.55
2018-07-30T20:15:27.702Z,96930.37
2018-07-30T20:17:56.991Z,96930.69
2018-07-30T20:20:26.343Z,96933.66
2018-07-30T20:22:55.995Z,96928.16
2018-07-30T20:25:25.213Z,96930.12
2018-07-30T20:27:54.387Z,96934.59
2018-07-30T20:30:23.575Z,96936.61
2018-07-30T20:32:53.079Z,96936.08
2018-07-30T20:35:22.312Z,96936.28
2018-07-30T20:37:51.754Z,96933.83
2018-07-30T20:40:21.530Z,96938.73
2018-07-30T20:42:51.458Z,96926.19
2018-07-30T20:45:20.839Z,96925.21
2018-07-30T20:47:50.507Z,96934.45
2018-07-30T20:50:20.617Z,96931.40
2018-07-30T20:52:50.003Z,96925.45
2018-07-30T20:55:19.515Z,96932.81
2018-07-30T20:57:49.114Z,96931.14
2018-07-30T21:00:19.241Z,96934.84
2018-07-30T21:02:48.856Z,96936.93
2018-07-30T21:05:18.056Z,96936.93
2018-07-30T21:07:48.834Z,96941.27
2018-07-30T21:10:18.522Z,96941.80
2018-07-30T21:12:47.712Z,96939.50
2018-07-30T21:15:17.824Z,96940.98
2018-07-30T21:17:47.005Z,96949.07
2018-07-30T21:20:16.792Z,96942.34
2018-07-30T21:22:46.047Z,96942.59
2018-07-30T21:25:15.255Z,96941.73
2018-07-30T21:27:44.467Z,96948.81
2018-07-30T21:30:13.728Z,96950.59
2018-07-30T21:32:42.835Z,96950.03
2018-07-30T21:35:13.107Z,96946.84
2018-07-30T21:37:42.566Z,96944.92
2018-07-30T21:40:11.791Z,96945.27
2018-07-30T21:42:42.182Z,96947.20
2018-07-30T21:45:11.439Z,96945.23
2018-07-30T21:47:40.642Z,96943.77
2018-07-30T21:50:09.967Z,96945.34
2018-07-30T21:52:39.226Z,96947.59
2018-07-30T21:55:08.790Z,96941.64
2018-07-30T21:57:38.403Z,96950.46
2018-07-30T22:00:10.507Z,96948.08
2018-07-30T22:02:40.151Z,96940.44
2018-07-30T22:05:15.072Z,96946.25
2018-07-30T22:07:45.368Z,96950.89
2018-07-30T22:10:14.808Z,96952.37
2018-07-30T22:12:44.280Z,96949.81
2018-07-30T22:15:13.446Z,96946.28
2018-07-30T22:17:42.651Z,96949.41
2018-07-30T22:20:12.508Z,96953.09
2018-07-30T22:22:42.261Z,96949.16
2018-07-30T22:25:11.450Z,96956.23
2018-07-30T22:27:42.127Z,96949.34
2018-07-30T22:30:12.615Z,96957.11
2018-07-30T22:32:42.337Z,96957.73
2018-07-30T22:35:11.511Z,96953.58
2018-07-30T22:37:41.614Z,96957.15
2018-07-30T22:40:12.248Z,96953.58
2018-07-30T22:42:42.926Z,96950.05
2018-07-30T22:45:12.151Z,96950.39
2018-07-30T22:47:41.862Z,96952.72
2018-07-30T22:50:12.063Z,96959.13
2018-07-30T22:52:41.287Z,96957.77
2018-07-30T22:55:11.259Z,96955.50
2018-07-30T22:57:41.046Z,96947.83
2018-07-30T23:00:10.289Z,96952.37
2018-07-30T23:02:40.406Z,96952.47
2018-07-30T23:05:09.982Z,96952.87
2018-07-30T23:07:39.480Z,96946.02
2018-07-30T23:10:09.339Z,96960.13
2018-07-30T23:12:38.864Z,96954.05
2018-07-30T23:15:08.414Z,96949.24
2018-07-30T23:17:37.807Z,96949.24
2018-07-30T23:20:07.699Z,96954.38
2018-07-30T23:22:36.890Z,96952.06
2018-07-30T23:25:06.094Z,96949.13
2018-07-30T23:27:35.703Z,96953.17
2018-07-30T23:30:05.454Z,96953.13
2018-07-30T23:32:34.810Z,96953.38
2018-07-30T23:35:04.288Z,96949.73
2018-07-30T23:37:33.752Z,96952.39
2018-07-30T23:40:03.321Z,96945.70
2018-07-30T23:42:32.855Z,96949.91
2018-07-30T23:45:02.075Z,96946.84
2018-07-30T23:47:32.132Z,96941.08
2018-07-30T23:50:01.899Z,96943.50
2018-07-30T23:52:31.391Z,96934.33
2018-07-30T23:55:00.735Z,96935.66
2018-07-30T23:57:30.678Z,96938.25
2018-07-30T23:59:59.863Z,96934.05
